createdAt,value
2023-01-06T00:02:26.954Z,-1.3
2023-01-06T00:07:25.497Z,-1.1
2023-01-06T00:12:24.193Z,-0.8
2023-01-06T00:17:22.655Z,-0.6
2023-01-06T00:22:21.271Z,-0.3
2023-01-06T00:27:19.954Z,-0.2
2023-01-06T00:32:18.533Z,0
2023-01-06T00:37:16.961Z,0.2
2023-01-06T00:42:15.703Z,0.3
2023-01-06T00:47:14.237Z,0.4
2023-01-06T00:52:12.791Z,0.5
2023-01-06T00:57:10.944Z,0.4
2023-01-06T01:02:09.259Z,0.6
2023-01-06T01:07:07.753Z,0.6
2023-01-06T01:12:06.218Z,0.6
2023-01-06T01:17:04.393Z,0.7
2023-01-06T01:22:02.783Z,0.8
2023-01-06T01:27:01.132Z,0.9
2023-01-06T01:31:59.615Z,1.1
2023-01-06T01:36:57.749Z,1.2
2023-01-06T01:41:56.134Z,1.3
2023-01-06T01:46:54.910Z,1.5
2023-01-06T01:51:53.323Z,1.4
2023-01-06T01:56:51.800Z,1.5
2023-01-06T02:01:50.420Z,1.5
2023-01-06T02:06:48.653Z,1.6
2023-01-06T02:11:47.000Z,1.4
2023-01-06T02:16:45.319Z,1.3
2023-01-06T02:21:43.568Z,1.4
2023-01-06T02:26:41.891Z,1.8
2023-01-06T02:31:40.517Z,1.9
2023-01-06T02:36:38.602Z,1.5
2023-01-06T02:41:36.664Z,1.2
2023-01-06T02:46:34.733Z,0.8
2023-01-06T02:51:32.755Z,0.3
2023-01-06T02:56:30.542Z,0.1
2023-01-06T03:01:28.664Z,0
2023-01-06T03:06:26.876Z,-0.1
2023-01-06T03:11:25.279Z,0
2023-01-06T03:16:23.715Z,0.5
2023-01-06T03:21:21.998Z,0.7
2023-01-06T03:26:20.271Z,0.9
2023-01-06T03:31:18.986Z,1.2
2023-01-06T03:36:17.373Z,1.5
2023-01-06T03:41:15.694Z,1.3
2023-01-06T03:46:13.684Z,0.8
2023-01-06T03:51:11.361Z,0.1
2023-01-06T03:56:09.129Z,-0.6
2023-01-06T04:01:07.153Z,-0.9
2023-01-06T04:06:04.985Z,-1.2
2023-01-06T04:11:03.382Z,-1.3
2023-01-06T04:16:01.563Z,-1.4
2023-01-06T04:20:59.703Z,-1.3
2023-01-06T04:25:57.987Z,-1
2023-01-06T04:30:56.605Z,-0.8
2023-01-06T04:35:54.928Z,-0.6
2023-01-06T04:40:53.434Z,-0.6
2023-01-06T04:45:51.833Z,-0.6
2023-01-06T04:50:50.026Z,-0.8
2023-01-06T04:55:48.329Z,-0.8
2023-01-06T05:00:46.744Z,-0.7
2023-01-06T05:05:45.051Z,-0.6
2023-01-06T05:10:43.704Z,-0.4
2023-01-06T05:15:42.173Z,-0.4
2023-01-06T05:20:40.510Z,-0.2
2023-01-06T05:25:38.866Z,-0.3
2023-01-06T05:30:37.174Z,-0.4
2023-01-06T05:35:35.369Z,-0.5
2023-01-06T05:40:33.112Z,-0.8
2023-01-06T05:45:31.110Z,-0.9
2023-01-06T05:50:29.103Z,-1
2023-01-06T05:55:27.195Z,-1
2023-01-06T06:00:25.572Z,-0.7
2023-01-06T06:05:24.146Z,-0.4
2023-01-06T06:10:22.945Z,-0.1
2023-01-06T06:15:21.512Z,0.3
2023-01-06T06:20:20.146Z,0.9
2023-01-06T06:25:19.235Z,1.2
2023-01-06T06:30:18.196Z,1.6
2023-01-06T06:35:16.706Z,1.9
2023-01-06T06:40:14.195Z,2
2023-01-06T06:45:12.689Z,2.1
2023-01-06T06:50:11.409Z,2.6
2023-01-06T06:55:10.024Z,3.3
2023-01-06T07:00:08.910Z,3.9
2023-01-06T07:05:07.673Z,4.4
2023-01-06T07:10:06.461Z,4.4
2023-01-06T07:15:04.287Z,3.7
2023-01-06T07:20:02.129Z,3.3
2023-01-06T07:25:00.184Z,3.1
2023-01-06T07:29:58.906Z,3.7
2023-01-06T07:34:58.122Z,4.8
2023-01-06T07:39:57.663Z,5.6
2023-01-06T07:44:56.114Z,5.8
2023-01-06T07:49:54.925Z,6.3
2023-01-06T07:54:53.761Z,6.8
2023-01-06T07:59:52.515Z,7
2023-01-06T08:04:51.436Z,7.3
2023-01-06T08:09:54.712Z,13.4
2023-01-06T08:14:56.583Z,14.9
2023-01-06T08:19:56.404Z,15.6
2023-01-06T08:24:53.291Z,14.8
2023-01-06T08:30:01.808Z,22.8
2023-01-06T08:35:02.598Z,22.1
2023-01-06T08:40:02.109Z,21.9
2023-01-06T08:44:55.240Z,16.6
2023-01-06T08:49:52.747Z,16.1
2023-01-06T08:54:50.437Z,15
2023-01-06T08:59:47.951Z,14.7
2023-01-06T09:04:46.745Z,14.8
2023-01-06T09:09:44.632Z,14.8
2023-01-06T09:14:44.841Z,16
2023-01-06T09:19:42.408Z,15.6
2023-01-06T09:24:39.408Z,14.2
2023-01-06T09:29:37.232Z,14.2
2023-01-06T09:34:37.813Z,16.2
2023-01-06T09:39:36.434Z,16.9
2023-01-06T09:44:34.363Z,16.5
2023-01-06T09:49:32.446Z,17.9
2023-01-06T09:54:36.086Z,20.6
2023-01-06T09:59:32.405Z,18.7
2023-01-06T10:04:32.224Z,21.1
2023-01-06T10:09:29.813Z,19.5
2023-01-06T10:14:26.163Z,17.7
2023-01-06T10:19:27.614Z,21.4
2023-01-06T10:24:33.524Z,27.5
2023-01-06T10:29:33.456Z,28.9
2023-01-06T10:34:32.179Z,28.3
2023-01-06T10:39:24.399Z,21.5
2023-01-06T10:44:19.314Z,18.6
2023-01-06T10:49:15.018Z,17.9
2023-01-06T10:54:19.927Z,22.9
2023-01-06T10:59:20.976Z,25.4
2023-01-06T11:04:20.207Z,25.4
2023-01-06T11:09:18.632Z,25.4
2023-01-06T11:14:13.191Z,23.9
2023-01-06T11:19:11.725Z,23.2
2023-01-06T11:24:10.315Z,23.7
2023-01-06T11:29:05.049Z,19.4
2023-01-06T11:34:01.393Z,19.3
2023-01-06T11:39:01.694Z,20.6
2023-01-06T11:43:59.801Z,20.2
2023-01-06T11:48:58.231Z,20.3
2023-01-06T11:53:55.989Z,19.4
2023-01-06T11:58:53.975Z,19
2023-01-06T12:03:51.190Z,17.1
2023-01-06T12:08:48.027Z,16.6
2023-01-06T12:14:08.215Z,16.9
2023-01-06T12:18:45.485Z,18
2023-01-06T12:23:44.659Z,18.5
2023-01-06T12:28:43.789Z,18.9
2023-01-06T12:33:42.024Z,18.2
2023-01-06T12:38:39.326Z,16.9
2023-01-06T12:43:36.890Z,16.1
2023-01-06T12:48:35.027Z,15.6
2023-01-06T12:53:33.425Z,16.1
2023-01-06T12:58:31.718Z,15.8
2023-01-06T13:03:29.610Z,15.2
2023-01-06T13:08:27.336Z,14.5
2023-01-06T13:13:25.004Z,13.9
2023-01-06T13:18:22.789Z,13.4
2023-01-06T13:23:20.888Z,12.9
2023-01-06T13:28:18.722Z,12.4
2023-01-06T13:33:16.794Z,12
2023-01-06T13:38:14.808Z,11.5
2023-01-06T13:43:12.761Z,10.9
2023-01-06T13:48:10.842Z,10.8
2023-01-06T13:53:09.004Z,10.5
2023-01-06T13:58:07.247Z,10.4
2023-01-06T14:03:05.474Z,10.1
2023-01-06T14:08:03.515Z,9.9
2023-01-06T14:13:01.827Z,9.5
2023-01-06T14:17:59.961Z,9.2
2023-01-06T14:22:58.574Z,9.1
2023-01-06T14:27:56.670Z,8.8
2023-01-06T14:32:54.945Z,8.2
2023-01-06T14:37:52.975Z,7.3
2023-01-06T14:42:51.052Z,6.8
2023-01-06T14:47:49.069Z,6.5
2023-01-06T14:52:47.275Z,6.1
2023-01-06T14:57:45.347Z,5.5
2023-01-06T15:02:43.337Z,4.8
2023-01-06T15:07:40.936Z,4.4
2023-01-06T15:12:42.120Z,3.9
2023-01-06T15:17:36.704Z,3.5
2023-01-06T15:22:34.882Z,3.1
2023-01-06T15:27:32.646Z,2.8
2023-01-06T15:32:30.991Z,2.6
2023-01-06T15:37:29.355Z,2.5
2023-01-06T15:42:28.285Z,2.3
2023-01-06T15:47:26.367Z,2.2
2023-01-06T15:52:24.558Z,1.9
2023-01-06T15:57:22.751Z,1.8
2023-01-06T16:02:20.950Z,1.5
2023-01-06T16:07:18.907Z,1.3
2023-01-06T16:12:17.260Z,1.1
2023-01-06T16:17:15.555Z,0.9
2023-01-06T16:22:14.337Z,0.9
2023-01-06T16:27:12.393Z,0.8
2023-01-06T16:32:10.661Z,0.7
2023-01-06T16:37:09.041Z,0.6
2023-01-06T16:42:07.459Z,0.6
2023-01-06T16:47:05.877Z,0.5
2023-01-06T16:52:04.051Z,0.4
2023-01-06T16:57:02.273Z,0.3
2023-01-06T17:02:00.480Z,0.3
2023-01-06T17:06:58.521Z,0.3
2023-01-06T17:11:56.670Z,0.2
2023-01-06T17:16:54.746Z,0.1
2023-01-06T17:21:53.405Z,0
2023-01-06T17:26:51.284Z,-0.1
2023-01-06T17:31:49.636Z,-0.2
2023-01-06T17:36:49.263Z,-0.2
2023-01-06T17:41:47.632Z,-0.2
2023-01-06T17:46:47.140Z,-0.4
2023-01-06T17:51:45.190Z,-0.6
2023-01-06T17:56:44.064Z,-0.5
2023-01-06T18:01:42.994Z,-0.3
2023-01-06T18:06:41.220Z,-0.4
2023-01-06T18:11:39.712Z,-0.4
2023-01-06T18:11:56.725Z,-0.4
2023-01-06T18:16:52.462Z,-0.5
2023-01-06T18:21:50.793Z,-0.5
2023-01-06T18:26:49.423Z,-1
2023-01-06T18:31:47.742Z,-0.6
2023-01-06T18:36:48.864Z,-1
2023-01-06T18:41:44.874Z,-0.7
2023-01-06T18:46:44.800Z,-0.9
2023-01-06T18:51:42.351Z,-0.9
2023-01-06T18:56:41.167Z,-0.8
2023-01-06T19:01:40.652Z,-1
2023-01-06T19:06:38.749Z,-1.2
2023-01-06T19:11:36.896Z,-1.1
2023-01-06T19:16:35.470Z,-1.2
2023-01-06T19:21:33.796Z,-1.2
2023-01-06T19:26:31.999Z,-1.4
2023-01-06T19:31:30.567Z,-1.4
2023-01-06T19:36:30.402Z,-1.3
2023-01-06T19:41:28.358Z,-1.2
2023-01-06T19:46:26.962Z,-1.3
2023-01-06T19:51:25.285Z,-1.3
2023-01-06T19:56:23.525Z,-1.4
2023-01-06T20:01:22.062Z,-1.4
2023-01-06T20:06:20.441Z,-1.4
2023-01-06T20:11:19.083Z,-1.5
2023-01-06T20:16:17.699Z,-1.5
2023-01-06T20:21:15.898Z,-1.6
2023-01-06T20:26:14.256Z,-1.6
2023-01-06T20:31:12.527Z,-1.7
2023-01-06T20:36:10.998Z,-1.8
2023-01-06T20:41:09.205Z,-1.7
2023-01-06T20:46:07.751Z,-1.7
2023-01-06T20:51:06.031Z,-1.8
2023-01-06T20:56:04.514Z,-1.7
2023-01-06T21:01:03.031Z,-1.8
2023-01-06T21:06:01.542Z,-1.8
2023-01-06T21:11:00.186Z,-1.9
2023-01-06T21:15:58.691Z,-2
2023-01-06T21:20:56.878Z,-2
2023-01-06T21:25:55.156Z,-2.1
2023-01-06T21:30:53.289Z,-2.2
2023-01-06T21:35:51.533Z,-2.2
2023-01-06T21:40:49.744Z,-2.3
2023-01-06T21:45:48.445Z,-2.3
2023-01-06T21:50:46.957Z,-2.4
2023-01-06T21:55:45.773Z,-2.5
2023-01-06T22:00:43.916Z,-2.6
2023-01-06T22:05:42.237Z,-2.6
2023-01-06T22:10:40.563Z,-2.6
2023-01-06T22:15:38.896Z,-2.6
2023-01-06T22:20:37.335Z,-2.6
2023-01-06T22:25:36.037Z,-2.6
2023-01-06T22:30:34.567Z,-2.6
2023-01-06T22:35:33.229Z,-2.7
2023-01-06T22:40:31.386Z,-2.8
2023-01-06T22:45:29.792Z,-2.8
2023-01-06T22:50:28.151Z,-2.8
2023-01-06T22:55:26.520Z,-2.9
2023-01-06T23:00:24.686Z,-2.9
2023-01-06T23:05:23.088Z,-2.9
2023-01-06T23:10:21.443Z,-3
2023-01-06T23:15:19.800Z,-2.9
2023-01-06T23:20:17.842Z,-3
2023-01-06T23:25:16.084Z,-3
2023-01-06T23:30:14.510Z,-3.1
2023-01-06T23:35:13.000Z,-3.1
2023-01-06T23:40:11.233Z,-3.1
2023-01-06T23:45:09.398Z,-3.3
2023-01-06T23:50:07.676Z,-3.4
2023-01-06T23:55:06.058Z,-3.4
